sensor_id;sensor_type;location;lat;lon;timestamp;P1;durP1;ratioP1;P2;durP2;ratioP2
58974;SDS011;44751;52.236;5.178;2022-08-01T00:02:31;6.88;;;4.93;;
58974;SDS011;44751;52.236;5.178;2022-08-01T00:04:57;6.82;;;4.78;;
58974;SDS011;44751;52.236;5.178;2022-08-01T00:07:25;7.80;;;4.68;;
58974;SDS011;44751;52.236;5.178;2022-08-01T00:09:53;7.53;;;5.38;;
58974;SDS011;44751;52.236;5.178;2022-08-01T00:12:20;7.70;;;5.00;;
58974;SDS011;44751;52.236;5.178;2022-08-01T00:14:48;8.95;;;5.18;;
58974;SDS011;44751;52.236;5.178;2022-08-01T00:17:14;7.80;;;5.05;;
58974;SDS011;44751;52.236;5.178;2022-08-01T00:19:41;9.02;;;5.85;;
58974;SDS011;44751;52.236;5.178;2022-08-01T00:24:36;7.80;;;5.82;;
58974;SDS011;44751;52.236;5.178;2022-08-01T00:27:03;9.30;;;6.38;;
58974;SDS011;44751;52.236;5.178;2022-08-01T00:29:29;8.52;;;5.93;;
58974;SDS011;44751;52.236;5.178;2022-08-01T00:31:56;6.75;;;5.53;;
58974;SDS011;44751;52.236;5.178;2022-08-01T00:34:22;8.73;;;6.15;;
58974;SDS011;44751;52.236;5.178;2022-08-01T00:36:48;9.52;;;5.65;;
58974;SDS011;44751;52.236;5.178;2022-08-01T00:39:15;7.88;;;5.93;;
58974;SDS011;44751;52.236;5.178;2022-08-01T00:41:41;8.48;;;5.97;;
58974;SDS011;44751;52.236;5.178;2022-08-01T00:44:10;8.77;;;6.53;;
58974;SDS011;44751;52.236;5.178;2022-08-01T00:46:36;9.75;;;6.30;;
58974;SDS011;44751;52.236;5.178;2022-08-01T00:49:02;10.05;;;6.38;;
58974;SDS011;44751;52.236;5.178;2022-08-01T00:51:29;9.68;;;6.20;;
58974;SDS011;44751;52.236;5.178;2022-08-01T00:53:56;8.60;;;6.03;;
58974;SDS011;44751;52.236;5.178;2022-08-01T00:56:23;9.10;;;5.75;;
58974;SDS011;44751;52.236;5.178;2022-08-01T00:58:54;11.65;;;6.30;;
58974;SDS011;44751;52.236;5.178;2022-08-01T01:01:21;7.93;;;6.15;;
58974;SDS011;44751;52.236;5.178;2022-08-01T01:03:48;9.45;;;5.75;;
58974;SDS011;44751;52.236;5.178;2022-08-01T01:09:39;8.35;;;6.35;;
58974;SDS011;44751;52.236;5.178;2022-08-01T01:17:41;11.88;;;7.00;;
58974;SDS011;44751;52.236;5.178;2022-08-01T01:20:12;9.30;;;6.00;;
58974;SDS011;44751;52.236;5.178;2022-08-01T01:22:47;9.85;;;5.95;;
58974;SDS011;44751;52.236;5.178;2022-08-01T01:28:12;9.93;;;5.97;;
58974;SDS011;44751;52.236;5.178;2022-08-01T01:30:47;8.32;;;5.75;;
58974;SDS011;44751;52.236;5.178;2022-08-01T01:33:17;9.00;;;5.72;;
58974;SDS011;44751;52.236;5.178;2022-08-01T01:35:49;8.73;;;5.97;;
58974;SDS011;44751;52.236;5.178;2022-08-01T01:38:26;11.38;;;5.88;;
58974;SDS011;44751;52.236;5.178;2022-08-01T01:40:58;10.80;;;6.25;;
58974;SDS011;44751;52.236;5.178;2022-08-01T01:43:28;9.00;;;6.03;;
58974;SDS011;44751;52.236;5.178;2022-08-01T01:45:56;10.93;;;6.63;;
58974;SDS011;44751;52.236;5.178;2022-08-01T01:48:23;8.07;;;5.75;;
58974;SDS011;44751;52.236;5.178;2022-08-01T01:50:52;8.20;;;6.03;;
58974;SDS011;44751;52.236;5.178;2022-08-01T01:53:20;8.18;;;5.72;;
58974;SDS011;44751;52.236;5.178;2022-08-01T01:55:48;9.50;;;6.50;;
58974;SDS011;44751;52.236;5.178;2022-08-01T01:58:19;9.23;;;6.05;;
58974;SDS011;44751;52.236;5.178;2022-08-01T02:00:46;8.70;;;5.55;;
58974;SDS011;44751;52.236;5.178;2022-08-01T02:03:18;9.65;;;6.55;;
58974;SDS011;44751;52.236;5.178;2022-08-01T02:05:45;9.23;;;6.38;;
58974;SDS011;44751;52.236;5.178;2022-08-01T02:08:14;9.68;;;6.90;;
58974;SDS011;44751;52.236;5.178;2022-08-01T02:10:42;9.90;;;6.70;;
58974;SDS011;44751;52.236;5.178;2022-08-01T02:13:32;10.18;;;6.53;;
58974;SDS011;44751;52.236;5.178;2022-08-01T02:16:00;9.20;;;6.38;;
58974;SDS011;44751;52.236;5.178;2022-08-01T02:18:36;7.80;;;6.13;;
58974;SDS011;44751;52.236;5.178;2022-08-01T02:21:03;8.60;;;6.53;;
58974;SDS011;44751;52.236;5.178;2022-08-01T02:23:34;8.73;;;6.15;;
58974;SDS011;44751;52.236;5.178;2022-08-01T02:26:07;8.43;;;6.50;;
58974;SDS011;44751;52.236;5.178;2022-08-01T02:28:46;8.05;;;5.80;;
58974;SDS011;44751;52.236;5.178;2022-08-01T02:31:17;9.05;;;6.00;;
58974;SDS011;44751;52.236;5.178;2022-08-01T02:33:54;7.55;;;5.57;;
58974;SDS011;44751;52.236;5.178;2022-08-01T02:36:27;8.18;;;5.63;;
58974;SDS011;44751;52.236;5.178;2022-08-01T02:38:59;7.25;;;5.13;;
58974;SDS011;44751;52.236;5.178;2022-08-01T02:41:29;9.38;;;6.15;;
58974;SDS011;44751;52.236;5.178;2022-08-01T02:43:58;8.32;;;5.70;;
58974;SDS011;44751;52.236;5.178;2022-08-01T02:46:48;9.30;;;5.80;;
58974;SDS011;44751;52.236;5.178;2022-08-01T02:49:17;7.60;;;5.38;;
58974;SDS011;44751;52.236;5.178;2022-08-01T02:51:46;8.05;;;5.43;;
58974;SDS011;44751;52.236;5.178;2022-08-01T02:54:14;9.80;;;6.10;;
58974;SDS011;44751;52.236;5.178;2022-08-01T02:56:43;7.63;;;5.47;;
58974;SDS011;44751;52.236;5.178;2022-08-01T02:59:15;6.80;;;5.07;;
58974;SDS011;44751;52.236;5.178;2022-08-01T03:01:44;7.38;;;5.22;;
58974;SDS011;44751;52.236;5.178;2022-08-01T03:04:12;8.30;;;5.55;;
58974;SDS011;44751;52.236;5.178;2022-08-01T03:06:40;8.60;;;5.55;;
58974;SDS011;44751;52.236;5.178;2022-08-01T03:09:07;9.75;;;6.00;;
58974;SDS011;44751;52.236;5.178;2022-08-01T03:11:35;7.50;;;5.55;;
58974;SDS011;44751;52.236;5.178;2022-08-01T03:14:05;6.80;;;5.45;;
58974;SDS011;44751;52.236;5.178;2022-08-01T03:16:35;9.05;;;5.90;;
58974;SDS011;44751;52.236;5.178;2022-08-01T03:19:04;7.65;;;5.75;;
58974;SDS011;44751;52.236;5.178;2022-08-01T03:21:33;7.32;;;5.63;;
58974;SDS011;44751;52.236;5.178;2022-08-01T03:24:09;6.80;;;5.30;;
58974;SDS011;44751;52.236;5.178;2022-08-01T03:26:38;7.47;;;6.18;;
58974;SDS011;44751;52.236;5.178;2022-08-01T03:29:06;9.68;;;6.20;;
58974;SDS011;44751;52.236;5.178;2022-08-01T03:31:43;8.30;;;5.82;;
58974;SDS011;44751;52.236;5.178;2022-08-01T03:34:11;7.63;;;5.70;;
58974;SDS011;44751;52.236;5.178;2022-08-01T03:36:56;7.05;;;5.70;;
58974;SDS011;44751;52.236;5.178;2022-08-01T03:39:32;7.40;;;6.50;;
58974;SDS011;44751;52.236;5.178;2022-08-01T03:42:12;10.20;;;6.72;;
58974;SDS011;44751;52.236;5.178;2022-08-01T03:44:48;7.80;;;6.47;;
58974;SDS011;44751;52.236;5.178;2022-08-01T03:47:21;8.88;;;5.97;;
58974;SDS011;44751;52.236;5.178;2022-08-01T03:49:51;8.32;;;5.97;;
58974;SDS011;44751;52.236;5.178;2022-08-01T03:52:20;9.30;;;6.82;;
58974;SDS011;44751;52.236;5.178;2022-08-01T03:54:47;8.40;;;6.72;;
58974;SDS011;44751;52.236;5.178;2022-08-01T03:57:17;8.38;;;6.05;;
58974;SDS011;44751;52.236;5.178;2022-08-01T03:59:44;6.82;;;6.13;;
58974;SDS011;44751;52.236;5.178;2022-08-01T04:02:12;8.00;;;6.30;;
58974;SDS011;44751;52.236;5.178;2022-08-01T04:04:39;8.73;;;5.40;;
58974;SDS011;44751;52.236;5.178;2022-08-01T04:07:20;6.00;;;5.10;;
58974;SDS011;44751;52.236;5.178;2022-08-01T04:09:47;6.82;;;5.28;;
58974;SDS011;44751;52.236;5.178;2022-08-01T04:12:14;8.38;;;4.95;;
58974;SDS011;44751;52.236;5.178;2022-08-01T04:14:40;5.53;;;4.32;;
58974;SDS011;44751;52.236;5.178;2022-08-01T04:17:07;5.28;;;4.38;;
58974;SDS011;44751;52.236;5.178;2022-08-01T04:19:33;8.38;;;4.43;;
58974;SDS011;44751;52.236;5.178;2022-08-01T04:21:59;6.32;;;3.72;;
58974;SDS011;44751;52.236;5.178;2022-08-01T04:24:27;6.20;;;3.50;;
58974;SDS011;44751;52.236;5.178;2022-08-01T04:26:58;4.00;;;3.15;;
58974;SDS011;44751;52.236;5.178;2022-08-01T04:29:26;3.40;;;3.03;;
58974;SDS011;44751;52.236;5.178;2022-08-01T04:31:56;2.67;;;2.45;;
58974;SDS011;44751;52.236;5.178;2022-08-01T04:34:25;3.10;;;2.25;;
58974;SDS011;44751;52.236;5.178;2022-08-01T04:36:54;2.28;;;1.70;;
58974;SDS011;44751;52.236;5.178;2022-08-01T04:39:23;1.40;;;1.30;;
58974;SDS011;44751;52.236;5.178;2022-08-01T04:41:53;2.38;;;1.55;;
58974;SDS011;44751;52.236;5.178;2022-08-01T04:44:24;2.33;;;1.92;;
58974;SDS011;44751;52.236;5.178;2022-08-01T04:46:52;2.08;;;1.50;;
58974;SDS011;44751;52.236;5.178;2022-08-01T04:49:21;1.48;;;1.38;;
58974;SDS011;44751;52.236;5.178;2022-08-01T04:51:50;2.47;;;1.60;;
58974;SDS011;44751;52.236;5.178;2022-08-01T04:54:22;1.60;;;1.50;;
58974;SDS011;44751;52.236;5.178;2022-08-01T04:56:49;1.40;;;1.27;;
58974;SDS011;44751;52.236;5.178;2022-08-01T04:59:15;3.30;;;1.73;;
58974;SDS011;44751;52.236;5.178;2022-08-01T05:02:14;4.07;;;1.77;;
58974;SDS011;44751;52.236;5.178;2022-08-01T05:04:45;2.47;;;1.50;;
58974;SDS011;44751;52.236;5.178;2022-08-01T05:07:12;2.03;;;1.50;;
58974;SDS011;44751;52.236;5.178;2022-08-01T05:09:44;3.13;;;1.80;;
58974;SDS011;44751;52.236;5.178;2022-08-01T05:12:11;2.15;;;1.88;;
58974;SDS011;44751;52.236;5.178;2022-08-01T05:14:38;2.83;;;2.00;;
58974;SDS011;44751;52.236;5.178;2022-08-01T05:17:06;4.40;;;2.25;;
58974;SDS011;44751;52.236;5.178;2022-08-01T05:19:33;2.50;;;1.92;;
58974;SDS011;44751;52.236;5.178;2022-08-01T05:22:02;3.58;;;2.28;;
58974;SDS011;44751;52.236;5.178;2022-08-01T05:24:39;3.85;;;2.20;;
58974;SDS011;44751;52.236;5.178;2022-08-01T05:27:06;2.30;;;2.10;;
58974;SDS011;44751;52.236;5.178;2022-08-01T05:29:34;4.63;;;2.58;;
58974;SDS011;44751;52.236;5.178;2022-08-01T05:32:01;5.78;;;3.08;;
58974;SDS011;44751;52.236;5.178;2022-08-01T05:34:28;3.90;;;2.65;;
58974;SDS011;44751;52.236;5.178;2022-08-01T05:36:55;3.38;;;2.60;;
58974;SDS011;44751;52.236;5.178;2022-08-01T05:39:21;5.70;;;3.00;;
58974;SDS011;44751;52.236;5.178;2022-08-01T05:41:50;5.05;;;3.17;;
58974;SDS011;44751;52.236;5.178;2022-08-01T05:44:16;5.18;;;3.00;;
58974;SDS011;44751;52.236;5.178;2022-08-01T05:46:43;5.18;;;3.30;;
58974;SDS011;44751;52.236;5.178;2022-08-01T05:49:09;5.45;;;3.15;;
58974;SDS011;44751;52.236;5.178;2022-08-01T05:51:39;7.95;;;3.70;;
58974;SDS011;44751;52.236;5.178;2022-08-01T05:54:14;10.77;;;3.83;;
58974;SDS011;44751;52.236;5.178;2022-08-01T05:56:41;7.32;;;3.10;;
58974;SDS011;44751;52.236;5.178;2022-08-01T05:59:07;8.27;;;3.50;;
58974;SDS011;44751;52.236;5.178;2022-08-01T06:01:34;10.93;;;3.47;;
58974;SDS011;44751;52.236;5.178;2022-08-01T06:04:00;6.95;;;2.78;;
58974;SDS011;44751;52.236;5.178;2022-08-01T06:06:33;8.55;;;2.97;;
58974;SDS011;44751;52.236;5.178;2022-08-01T06:08:59;9.15;;;3.67;;
58974;SDS011;44751;52.236;5.178;2022-08-01T06:11:26;9.27;;;2.95;;
58974;SDS011;44751;52.236;5.178;2022-08-01T06:13:52;7.75;;;2.75;;
58974;SDS011;44751;52.236;5.178;2022-08-01T06:16:20;6.15;;;2.80;;
58974;SDS011;44751;52.236;5.178;2022-08-01T06:18:46;7.78;;;2.95;;
58974;SDS011;44751;52.236;5.178;2022-08-01T06:21:13;8.20;;;3.00;;
58974;SDS011;44751;52.236;5.178;2022-08-01T06:23:39;10.13;;;3.03;;
58974;SDS011;44751;52.236;5.178;2022-08-01T06:26:07;11.10;;;2.95;;
58974;SDS011;44751;52.236;5.178;2022-08-01T06:28:34;13.38;;;3.30;;
58974;SDS011;44751;52.236;5.178;2022-08-01T06:31:01;9.52;;;2.97;;
58974;SDS011;44751;52.236;5.178;2022-08-01T06:33:27;12.48;;;3.15;;
58974;SDS011;44751;52.236;5.178;2022-08-01T06:35:54;11.35;;;3.13;;
58974;SDS011;44751;52.236;5.178;2022-08-01T06:38:21;13.27;;;3.25;;
58974;SDS011;44751;52.236;5.178;2022-08-01T06:40:49;10.07;;;2.85;;
58974;SDS011;44751;52.236;5.178;2022-08-01T06:43:15;10.32;;;2.90;;
58974;SDS011;44751;52.236;5.178;2022-08-01T06:45:48;10.55;;;3.10;;
58974;SDS011;44751;52.236;5.178;2022-08-01T06:48:15;7.55;;;2.90;;
58974;SDS011;44751;52.236;5.178;2022-08-01T06:50:41;8.98;;;3.22;;
58974;SDS011;44751;52.236;5.178;2022-08-01T06:53:08;13.43;;;2.97;;
58974;SDS011;44751;52.236;5.178;2022-08-01T06:55:34;11.68;;;3.10;;
58974;SDS011;44751;52.236;5.178;2022-08-01T06:58:05;13.32;;;2.63;;
58974;SDS011;44751;52.236;5.178;2022-08-01T07:00:31;11.30;;;2.72;;
58974;SDS011;44751;52.236;5.178;2022-08-01T07:02:58;10.98;;;3.08;;
58974;SDS011;44751;52.236;5.178;2022-08-01T07:05:25;14.10;;;2.88;;
58974;SDS011;44751;52.236;5.178;2022-08-01T07:07:52;13.50;;;3.25;;
58974;SDS011;44751;52.236;5.178;2022-08-01T07:10:19;13.88;;;3.03;;
58974;SDS011;44751;52.236;5.178;2022-08-01T07:12:46;15.05;;;2.88;;
58974;SDS011;44751;52.236;5.178;2022-08-01T07:15:12;9.98;;;2.55;;
58974;SDS011;44751;52.236;5.178;2022-08-01T07:17:39;9.18;;;2.35;;
58974;SDS011;44751;52.236;5.178;2022-08-01T07:20:11;9.73;;;2.83;;
58974;SDS011;44751;52.236;5.178;2022-08-01T07:22:40;9.00;;;2.35;;
58974;SDS011;44751;52.236;5.178;2022-08-01T07:25:07;13.02;;;2.70;;
58974;SDS011;44751;52.236;5.178;2022-08-01T07:27:34;7.45;;;2.35;;
58974;SDS011;44751;52.236;5.178;2022-08-01T07:30:01;12.10;;;2.40;;
58974;SDS011;44751;52.236;5.178;2022-08-01T07:32:29;9.48;;;2.47;;
58974;SDS011;44751;52.236;5.178;2022-08-01T07:35:02;10.10;;;2.65;;
58974;SDS011;44751;52.236;5.178;2022-08-01T07:37:30;10.00;;;2.40;;
58974;SDS011;44751;52.236;5.178;2022-08-01T07:39:56;11.70;;;2.47;;
58974;SDS011;44751;52.236;5.178;2022-08-01T07:42:23;6.43;;;2.30;;
58974;SDS011;44751;52.236;5.178;2022-08-01T07:44:52;10.40;;;2.47;;
58974;SDS011;44751;52.236;5.178;2022-08-01T07:47:23;12.85;;;2.75;;
58974;SDS011;44751;52.236;5.178;2022-08-01T07:49:58;9.25;;;2.35;;
58974;SDS011;44751;52.236;5.178;2022-08-01T07:52:29;9.80;;;2.58;;
58974;SDS011;44751;52.236;5.178;2022-08-01T07:54:56;11.45;;;2.72;;
58974;SDS011;44751;52.236;5.178;2022-08-01T07:57:23;14.70;;;3.03;;
58974;SDS011;44751;52.236;5.178;2022-08-01T07:59:51;10.45;;;2.40;;
58974;SDS011;44751;52.236;5.178;2022-08-01T08:02:18;8.93;;;2.40;;
58974;SDS011;44751;52.236;5.178;2022-08-01T08:04:46;9.52;;;2.30;;
58974;SDS011;44751;52.236;5.178;2022-08-01T08:07:13;9.23;;;2.13;;
58974;SDS011;44751;52.236;5.178;2022-08-01T08:09:39;5.57;;;1.80;;
58974;SDS011;44751;52.236;5.178;2022-08-01T08:12:06;10.07;;;2.35;;
58974;SDS011;44751;52.236;5.178;2022-08-01T08:14:32;12.00;;;2.42;;
58974;SDS011;44751;52.236;5.178;2022-08-01T08:16:59;13.75;;;3.20;;
58974;SDS011;44751;52.236;5.178;2022-08-01T08:19:28;10.50;;;2.38;;
58974;SDS011;44751;52.236;5.178;2022-08-01T08:21:57;13.55;;;2.67;;
58974;SDS011;44751;52.236;5.178;2022-08-01T08:24:24;10.65;;;2.13;;
58974;SDS011;44751;52.236;5.178;2022-08-01T08:26:55;14.15;;;2.28;;
58974;SDS011;44751;52.236;5.178;2022-08-01T08:29:23;9.70;;;2.42;;
58974;SDS011;44751;52.236;5.178;2022-08-01T08:31:54;9.55;;;2.15;;
58974;SDS011;44751;52.236;5.178;2022-08-01T08:34:21;9.45;;;2.10;;
58974;SDS011;44751;52.236;5.178;2022-08-01T08:36:48;8.40;;;1.85;;
58974;SDS011;44751;52.236;5.178;2022-08-01T08:39:15;9.02;;;2.03;;
58974;SDS011;44751;52.236;5.178;2022-08-01T08:41:42;9.88;;;2.03;;
58974;SDS011;44751;52.236;5.178;2022-08-01T08:44:09;9.68;;;2.45;;
58974;SDS011;44751;52.236;5.178;2022-08-01T08:46:43;11.27;;;2.10;;
58974;SDS011;44751;52.236;5.178;2022-08-01T08:49:14;11.18;;;2.50;;
58974;SDS011;44751;52.236;5.178;2022-08-01T08:51:48;9.05;;;2.03;;
58974;SDS011;44751;52.236;5.178;2022-08-01T08:54:16;7.75;;;2.28;;
58974;SDS011;44751;52.236;5.178;2022-08-01T08:56:45;8.70;;;2.10;;
58974;SDS011;44751;52.236;5.178;2022-08-01T08:59:18;10.65;;;2.10;;
58974;SDS011;44751;52.236;5.178;2022-08-01T09:01:45;11.75;;;2.65;;
58974;SDS011;44751;52.236;5.178;2022-08-01T09:04:12;8.70;;;2.15;;
58974;SDS011;44751;52.236;5.178;2022-08-01T09:06:39;8.98;;;2.40;;
58974;SDS011;44751;52.236;5.178;2022-08-01T09:09:07;9.82;;;1.90;;
58974;SDS011;44751;52.236;5.178;2022-08-01T09:11:36;8.48;;;1.90;;
58974;SDS011;44751;52.236;5.178;2022-08-01T09:16:30;10.43;;;2.08;;
58974;SDS011;44751;52.236;5.178;2022-08-01T09:19:08;11.40;;;2.22;;
58974;SDS011;44751;52.236;5.178;2022-08-01T09:22:01;9.60;;;2.00;;
58974;SDS011;44751;52.236;5.178;2022-08-01T09:24:30;8.60;;;2.13;;
58974;SDS011;44751;52.236;5.178;2022-08-01T09:26:58;7.68;;;1.80;;
58974;SDS011;44751;52.236;5.178;2022-08-01T09:29:28;9.85;;;2.50;;
58974;SDS011;44751;52.236;5.178;2022-08-01T09:31:56;8.73;;;2.13;;
58974;SDS011;44751;52.236;5.178;2022-08-01T09:34:28;9.65;;;2.10;;
58974;SDS011;44751;52.236;5.178;2022-08-01T09:36:59;11.90;;;2.10;;
58974;SDS011;44751;52.236;5.178;2022-08-01T09:42:02;7.53;;;2.15;;
58974;SDS011;44751;52.236;5.178;2022-08-01T09:44:45;9.25;;;2.28;;
58974;SDS011;44751;52.236;5.178;2022-08-01T09:47:12;8.98;;;2.05;;
58974;SDS011;44751;52.236;5.178;2022-08-01T09:49:41;10.60;;;1.92;;
58974;SDS011;44751;52.236;5.178;2022-08-01T09:52:11;8.45;;;1.80;;
58974;SDS011;44751;52.236;5.178;2022-08-01T09:54:42;7.75;;;2.13;;
58974;SDS011;44751;52.236;5.178;2022-08-01T09:57:19;9.30;;;2.20;;
58974;SDS011;44751;52.236;5.178;2022-08-01T09:59:47;7.57;;;1.90;;
58974;SDS011;44751;52.236;5.178;2022-08-01T10:04:57;10.82;;;2.13;;
58974;SDS011;44751;52.236;5.178;2022-08-01T10:07:24;9.93;;;2.20;;
58974;SDS011;44751;52.236;5.178;2022-08-01T10:09:50;10.65;;;2.22;;
58974;SDS011;44751;52.236;5.178;2022-08-01T10:12:19;9.35;;;1.95;;
58974;SDS011;44751;52.236;5.178;2022-08-01T10:14:49;9.45;;;2.10;;
58974;SDS011;44751;52.236;5.178;2022-08-01T10:17:19;6.07;;;1.67;;
58974;SDS011;44751;52.236;5.178;2022-08-01T10:19:46;6.70;;;1.80;;
58974;SDS011;44751;52.236;5.178;2022-08-01T10:22:22;7.35;;;1.98;;
58974;SDS011;44751;52.236;5.178;2022-08-01T10:24:53;8.13;;;2.17;;
58974;SDS011;44751;52.236;5.178;2022-08-01T10:27:28;9.05;;;2.30;;
58974;SDS011;44751;52.236;5.178;2022-08-01T10:30:02;9.77;;;2.10;;
58974;SDS011;44751;52.236;5.178;2022-08-01T10:32:33;7.72;;;2.08;;
58974;SDS011;44751;52.236;5.178;2022-08-01T10:35:02;10.20;;;1.90;;
58974;SDS011;44751;52.236;5.178;2022-08-01T10:37:30;5.68;;;1.60;;
58974;SDS011;44751;52.236;5.178;2022-08-01T10:40:11;7.40;;;1.50;;
58974;SDS011;44751;52.236;5.178;2022-08-01T10:42:39;5.10;;;1.40;;
58974;SDS011;44751;52.236;5.178;2022-08-01T10:45:08;8.55;;;1.70;;
58974;SDS011;44751;52.236;5.178;2022-08-01T10:47:46;8.32;;;1.73;;
58974;SDS011;44751;52.236;5.178;2022-08-01T10:50:33;5.50;;;1.60;;
58974;SDS011;44751;52.236;5.178;2022-08-01T10:53:12;6.07;;;1.27;;
58974;SDS011;44751;52.236;5.178;2022-08-01T10:55:46;5.93;;;1.40;;
58974;SDS011;44751;52.236;5.178;2022-08-01T10:58:24;4.80;;;1.30;;
58974;SDS011;44751;52.236;5.178;2022-08-01T11:01:15;5.90;;;1.73;;
58974;SDS011;44751;52.236;5.178;2022-08-01T11:06:28;5.57;;;1.52;;
58974;SDS011;44751;52.236;5.178;2022-08-01T11:09:02;6.78;;;1.60;;
58974;SDS011;44751;52.236;5.178;2022-08-01T11:11:31;7.28;;;1.50;;
58974;SDS011;44751;52.236;5.178;2022-08-01T11:16:36;5.63;;;1.35;;
58974;SDS011;44751;52.236;5.178;2022-08-01T11:19:04;9.00;;;1.50;;
58974;SDS011;44751;52.236;5.178;2022-08-01T11:27:21;4.78;;;1.42;;
58974;SDS011;44751;52.236;5.178;2022-08-01T11:35:24;5.63;;;1.20;;
58974;SDS011;44751;52.236;5.178;2022-08-01T11:37:54;4.53;;;1.42;;
58974;SDS011;44751;52.236;5.178;2022-08-01T11:40:23;3.35;;;1.20;;
58974;SDS011;44751;52.236;5.178;2022-08-01T11:45:53;3.80;;;1.00;;
58974;SDS011;44751;52.236;5.178;2022-08-01T11:48:24;4.63;;;1.23;;
58974;SDS011;44751;52.236;5.178;2022-08-01T11:50:55;4.68;;;1.10;;
58974;SDS011;44751;52.236;5.178;2022-08-01T11:53:23;3.70;;;1.20;;
58974;SDS011;44751;52.236;5.178;2022-08-01T11:55:51;2.90;;;1.15;;
58974;SDS011;44751;52.236;5.178;2022-08-01T11:58:23;3.65;;;1.50;;
58974;SDS011;44751;52.236;5.178;2022-08-01T12:00:52;5.13;;;1.42;;
58974;SDS011;44751;52.236;5.178;2022-08-01T12:03:29;4.30;;;1.20;;
58974;SDS011;44751;52.236;5.178;2022-08-01T12:05:57;6.95;;;1.20;;
58974;SDS011;44751;52.236;5.178;2022-08-01T12:08:29;3.25;;;1.10;;
58974;SDS011;44751;52.236;5.178;2022-08-01T12:11:02;4.38;;;1.10;;
58974;SDS011;44751;52.236;5.178;2022-08-01T12:13:45;4.38;;;1.05;;
58974;SDS011;44751;52.236;5.178;2022-08-01T12:16:13;5.38;;;1.40;;
58974;SDS011;44751;52.236;5.178;2022-08-01T12:18:40;5.68;;;1.15;;
58974;SDS011;44751;52.236;5.178;2022-08-01T12:21:08;2.92;;;0.90;;
58974;SDS011;44751;52.236;5.178;2022-08-01T12:23:35;3.25;;;0.98;;
58974;SDS011;44751;52.236;5.178;2022-08-01T12:26:02;3.95;;;0.90;;
58974;SDS011;44751;52.236;5.178;2022-08-01T12:28:38;4.65;;;0.93;;
58974;SDS011;44751;52.236;5.178;2022-08-01T12:31:05;3.88;;;1.10;;
58974;SDS011;44751;52.236;5.178;2022-08-01T12:33:32;3.50;;;1.02;;
58974;SDS011;44751;52.236;5.178;2022-08-01T12:35:58;5.28;;;1.00;;
58974;SDS011;44751;52.236;5.178;2022-08-01T12:38:26;3.75;;;1.00;;
58974;SDS011;44751;52.236;5.178;2022-08-01T12:40:54;5.35;;;1.25;;
58974;SDS011;44751;52.236;5.178;2022-08-01T12:43:22;3.75;;;1.17;;
58974;SDS011;44751;52.236;5.178;2022-08-01T12:45:50;4.80;;;1.02;;
58974;SDS011;44751;52.236;5.178;2022-08-01T12:48:18;2.97;;;1.10;;
58974;SDS011;44751;52.236;5.178;2022-08-01T12:50:47;2.50;;;0.85;;
58974;SDS011;44751;52.236;5.178;2022-08-01T12:53:15;2.63;;;0.73;;
58974;SDS011;44751;52.236;5.178;2022-08-01T12:55:53;3.22;;;0.90;;
58974;SDS011;44751;52.236;5.178;2022-08-01T12:58:21;1.75;;;0.70;;
58974;SDS011;44751;52.236;5.178;2022-08-01T13:00:48;2.92;;;0.82;;
58974;SDS011;44751;52.236;5.178;2022-08-01T13:03:16;2.60;;;0.90;;
58974;SDS011;44751;52.236;5.178;2022-08-01T13:05:51;2.00;;;0.90;;
58974;SDS011;44751;52.236;5.178;2022-08-01T13:10:50;2.95;;;0.70;;
58974;SDS011;44751;52.236;5.178;2022-08-01T13:13:34;3.90;;;1.00;;
58974;SDS011;44751;52.236;5.178;2022-08-01T13:16:06;1.45;;;0.80;;
58974;SDS011;44751;52.236;5.178;2022-08-01T13:18:33;3.55;;;0.93;;
58974;SDS011;44751;52.236;5.178;2022-08-01T13:21:14;3.72;;;1.23;;
58974;SDS011;44751;52.236;5.178;2022-08-01T13:24:06;3.92;;;1.15;;
58974;SDS011;44751;52.236;5.178;2022-08-01T13:26:45;4.57;;;1.13;;
58974;SDS011;44751;52.236;5.178;2022-08-01T13:29:14;3.45;;;1.02;;
58974;SDS011;44751;52.236;5.178;2022-08-01T13:31:42;3.72;;;1.30;;
58974;SDS011;44751;52.236;5.178;2022-08-01T13:34:12;3.70;;;1.10;;
58974;SDS011;44751;52.236;5.178;2022-08-01T13:36:39;6.63;;;1.33;;
58974;SDS011;44751;52.236;5.178;2022-08-01T13:39:06;3.40;;;1.13;;
58974;SDS011;44751;52.236;5.178;2022-08-01T13:41:53;5.63;;;1.38;;
58974;SDS011;44751;52.236;5.178;2022-08-01T13:44:19;4.35;;;1.38;;
58974;SDS011;44751;52.236;5.178;2022-08-01T13:47:21;4.85;;;1.10;;
58974;SDS011;44751;52.236;5.178;2022-08-01T13:50:02;6.03;;;1.33;;
58974;SDS011;44751;52.236;5.178;2022-08-01T13:52:29;4.97;;;1.40;;
58974;SDS011;44751;52.236;5.178;2022-08-01T13:54:58;5.97;;;1.20;;
58974;SDS011;44751;52.236;5.178;2022-08-01T13:57:42;3.80;;;1.10;;
58974;SDS011;44751;52.236;5.178;2022-08-01T14:00:12;4.53;;;1.15;;
58974;SDS011;44751;52.236;5.178;2022-08-01T14:02:39;7.72;;;1.30;;
58974;SDS011;44751;52.236;5.178;2022-08-01T14:05:06;4.93;;;1.00;;
58974;SDS011;44751;52.236;5.178;2022-08-01T14:07:39;4.20;;;1.30;;
58974;SDS011;44751;52.236;5.178;2022-08-01T14:10:05;4.93;;;1.30;;
58974;SDS011;44751;52.236;5.178;2022-08-01T14:12:32;5.97;;;1.40;;
58974;SDS011;44751;52.236;5.178;2022-08-01T14:14:58;3.97;;;1.17;;
58974;SDS011;44751;52.236;5.178;2022-08-01T14:17:25;2.88;;;1.10;;
58974;SDS011;44751;52.236;5.178;2022-08-01T14:19:54;4.10;;;1.25;;
58974;SDS011;44751;52.236;5.178;2022-08-01T14:22:21;5.03;;;1.17;;
58974;SDS011;44751;52.236;5.178;2022-08-01T14:24:48;4.32;;;1.00;;
58974;SDS011;44751;52.236;5.178;2022-08-01T14:27:14;2.90;;;0.90;;
58974;SDS011;44751;52.236;5.178;2022-08-01T14:29:41;4.43;;;1.23;;
58974;SDS011;44751;52.236;5.178;2022-08-01T14:32:07;3.15;;;1.25;;
58974;SDS011;44751;52.236;5.178;2022-08-01T14:34:36;5.00;;;1.20;;
58974;SDS011;44751;52.236;5.178;2022-08-01T14:37:02;2.55;;;1.17;;
58974;SDS011;44751;52.236;5.178;2022-08-01T14:39:34;3.47;;;1.10;;
58974;SDS011;44751;52.236;5.178;2022-08-01T14:42:01;4.70;;;1.10;;
58974;SDS011;44751;52.236;5.178;2022-08-01T14:44:29;3.20;;;1.02;;
58974;SDS011;44751;52.236;5.178;2022-08-01T14:46:56;4.50;;;0.95;;
58974;SDS011;44751;52.236;5.178;2022-08-01T14:49:22;2.90;;;1.10;;
58974;SDS011;44751;52.236;5.178;2022-08-01T14:51:49;3.42;;;1.20;;
58974;SDS011;44751;52.236;5.178;2022-08-01T14:54:15;3.40;;;1.20;;
58974;SDS011;44751;52.236;5.178;2022-08-01T14:56:42;4.53;;;1.13;;
58974;SDS011;44751;52.236;5.178;2022-08-01T14:59:08;3.38;;;1.10;;
58974;SDS011;44751;52.236;5.178;2022-08-01T15:01:35;4.15;;;1.33;;
58974;SDS011;44751;52.236;5.178;2022-08-01T15:04:01;4.88;;;1.10;;
58974;SDS011;44751;52.236;5.178;2022-08-01T15:06:28;4.18;;;0.90;;
58974;SDS011;44751;52.236;5.178;2022-08-01T15:08:54;3.83;;;1.10;;
58974;SDS011;44751;52.236;5.178;2022-08-01T15:11:23;4.10;;;1.00;;
58974;SDS011;44751;52.236;5.178;2022-08-01T15:13:50;4.10;;;1.15;;
58974;SDS011;44751;52.236;5.178;2022-08-01T15:16:37;3.00;;;0.90;;
58974;SDS011;44751;52.236;5.178;2022-08-01T15:19:06;6.38;;;1.05;;
58974;SDS011;44751;52.236;5.178;2022-08-01T15:21:33;4.15;;;1.20;;
58974;SDS011;44751;52.236;5.178;2022-08-01T15:24:00;6.00;;;1.30;;
58974;SDS011;44751;52.236;5.178;2022-08-01T15:26:32;5.45;;;1.33;;
58974;SDS011;44751;52.236;5.178;2022-08-01T15:28:59;4.38;;;1.00;;
58974;SDS011;44751;52.236;5.178;2022-08-01T15:31:26;3.78;;;1.00;;
58974;SDS011;44751;52.236;5.178;2022-08-01T15:33:53;4.40;;;1.23;;
58974;SDS011;44751;52.236;5.178;2022-08-01T15:36:19;4.85;;;1.25;;
58974;SDS011;44751;52.236;5.178;2022-08-01T15:38:45;4.43;;;1.10;;
58974;SDS011;44751;52.236;5.178;2022-08-01T15:41:12;4.10;;;1.42;;
58974;SDS011;44751;52.236;5.178;2022-08-01T15:43:42;5.28;;;1.27;;
58974;SDS011;44751;52.236;5.178;2022-08-01T15:46:08;3.60;;;1.23;;